Time;durP1;ratioP1;P1;durP2;ratioP2;P2;SDS_P1;SDS_P2;PMS_P1;PMS_P2;Temp;Humidity;BMP_temperature;BMP_pressure;BME280_temperature;BME280_humidity;BME280_pressure;Samples;Min_cycle;Max_cycle;Signal;HPM_P1;HPM_P2
2021/10/31 00:01:21;;;;;;;;;;;;;;;12.03;81.01;98723.94;5031525;28;19983;-73
2021/10/31 00:03:46;;;;;;;;;;;;;;;11.98;81.41;98724.25;5049396;28;19932;-71
2021/10/31 00:06:11;;;;;;;;;;;;;;;11.98;81.39;98726.06;5022746;28;19971;-72
2021/10/31 00:08:37;;;;;;;;;;;;;;;11.94;81.31;98728.09;5047815;28;19924;-71
2021/10/31 00:11:02;;;;;;;;;;;;;;;11.91;81.43;98736.25;5048006;28;20376;-71
2021/10/31 00:13:27;;;;;;;;;;;;;;;11.93;81.17;98730.84;5049179;28;19936;-71
2021/10/31 00:15:53;;;;;;;;;;;;;;;11.90;81.45;98736.34;5049247;28;19921;-73
2021/10/31 00:18:18;;;;;;;;;;;;;;;11.89;82.05;98732.88;5049245;28;19921;-72
2021/10/31 00:20:44;;;;;;;;;;;;;;;11.86;82.30;98737.47;5046896;28;19917;-73
2021/10/31 00:23:09;;;;;;;;;;;;;;;11.87;81.52;98747.13;5048606;28;19917;-72
2021/10/31 00:25:34;;;;;;;;;;;;;;;11.87;81.86;98739.22;5049552;28;19924;-73
2021/10/31 00:28:00;;;;;;;;;;;;;;;11.85;81.63;98741.91;5049187;28;20012;-72
2021/10/31 00:30:25;;;;;;;;;;;;;;;11.80;82.09;98744.88;5046464;28;19924;-73
2021/10/31 00:32:50;;;;;;;;;;;;;;;11.74;82.11;98747.09;5028376;28;19940;-73
2021/10/31 00:35:15;;;;;;;;;;;;;;;11.71;81.81;98748.16;5029329;28;19917;-72
2021/10/31 00:37:41;;;;;;;;;;;;;;;11.69;81.93;98749.22;5029498;28;19940;-72
2021/10/31 00:40:06;;;;;;;;;;;;;;;11.67;82.29;98754.63;5028322;28;19921;-72
2021/10/31 00:42:31;;;;;;;;;;;;;;;11.67;81.87;98746.72;5028604;28;19917;-72
2021/10/31 00:44:56;;;;;;;;;;;;;;;11.68;82.04;98740.47;5029464;28;19947;-71
2021/10/31 00:47:22;;;;;;;;;;;;;;;11.70;81.68;98743.00;5028100;28;19967;-73
2021/10/31 00:49:47;;;;;;;;;;;;;;;11.68;81.27;98735.19;5011378;28;19925;-73
2021/10/31 00:52:15;;;;;;;;;;;;;;;11.67;82.02;98732.69;5027933;28;19921;-72
2021/10/31 00:54:41;;;;;;;;;;;;;;;11.63;81.90;98737.31;5029336;28;19918;-72
2021/10/31 00:57:06;;;;;;;;;;;;;;;11.61;81.67;98732.13;5021020;28;19917;-72
2021/10/31 00:59:31;;;;;;;;;;;;;;;11.59;81.82;98723.50;5049100;28;19921;-72
2021/10/31 01:02:00;;;;;;;;;;;;;;;11.58;82.08;98729.72;5046546;28;19921;-72
2021/10/31 01:04:26;;;;;;;;;;;;;;;11.59;81.60;98727.91;5049028;28;19959;-73
2021/10/31 01:06:57;;;;;;;;;;;;;;;11.60;81.93;98729.63;5048107;28;19960;-72
2021/10/31 01:09:58;;;;;;;;;;;;;;;11.61;81.54;98729.50;5030319;28;19916;-73
2021/10/31 01:12:39;;;;;;;;;;;;;;;11.62;81.70;98738.28;4969546;28;19922;-72
2021/10/31 01:15:22;;;;;;;;;;;;;;;11.63;82.00;98726.75;5041502;28;19920;-72
2021/10/31 01:17:47;;;;;;;;;;;;;;;11.65;81.05;98727.50;5048678;28;19967;-72
2021/10/31 01:20:15;;;;;;;;;;;;;;;11.62;81.46;98738.28;5047835;28;19920;-71
2021/10/31 01:22:56;;;;;;;;;;;;;;;11.64;81.56;98736.38;5049076;28;19924;-72
2021/10/31 01:26:00;;;;;;;;;;;;;;;11.56;81.64;98738.69;5048624;28;20372;-73
2021/10/31 01:28:25;;;;;;;;;;;;;;;11.56;81.77;98736.06;4986402;28;19922;-72
2021/10/31 01:31:05;;;;;;;;;;;;;;;11.57;81.62;98737.75;4986581;28;20432;-73
2021/10/31 01:33:30;;;;;;;;;;;;;;;11.50;81.66;98741.78;5022357;28;19916;-72
2021/10/31 01:35:55;;;;;;;;;;;;;;;11.48;81.42;98741.03;5053709;28;20370;-72
2021/10/31 01:38:31;;;;;;;;;;;;;;;11.43;81.96;98740.50;5053422;28;19940;-72
2021/10/31 01:40:57;;;;;;;;;;;;;;;11.41;81.25;98745.88;5051609;28;20410;-72
2021/10/31 01:43:25;;;;;;;;;;;;;;;11.33;81.51;98745.59;5034124;28;19917;-72
2021/10/31 01:45:50;;;;;;;;;;;;;;;11.30;81.42;98748.44;5051943;28;19986;-72
2021/10/31 01:48:18;;;;;;;;;;;;;;;11.17;81.92;98743.13;5050767;28;20321;-71
2021/10/31 01:50:45;;;;;;;;;;;;;;;11.13;81.83;98750.44;5052154;28;19974;-70
2021/10/31 01:53:29;;;;;;;;;;;;;;;11.07;81.75;98757.91;5052894;28;19955;-71
2021/10/31 01:56:00;;;;;;;;;;;;;;;11.10;82.26;98762.97;5035113;28;20800;-73
2021/10/31 01:58:26;;;;;;;;;;;;;;;11.05;81.61;98758.03;5054425;28;19925;-74
2021/10/31 02:00:52;;;;;;;;;;;;;;;11.01;81.85;98753.06;5008250;28;19916;-72
2021/10/31 02:03:19;;;;;;;;;;;;;;;10.91;82.75;98758.94;5022361;28;19952;-72
2021/10/31 02:05:45;;;;;;;;;;;;;;;10.91;82.83;98760.75;5049573;28;20012;-72
2021/10/31 02:08:10;;;;;;;;;;;;;;;10.87;82.56;98756.63;5050757;28;19978;-72
2021/10/31 02:10:36;;;;;;;;;;;;;;;10.81;82.40;98760.50;5051173;28;19916;-72
2021/10/31 02:13:03;;;;;;;;;;;;;;;10.76;82.56;98764.41;5032681;28;19928;-72
2021/10/31 02:15:32;;;;;;;;;;;;;;;10.70;82.52;98765.63;5051083;28;20000;-73
2021/10/31 02:17:58;;;;;;;;;;;;;;;10.60;82.87;98760.13;5051672;28;19977;-71
2021/10/31 02:20:25;;;;;;;;;;;;;;;10.57;83.09;98757.72;5051245;28;19917;-73
2021/10/31 02:22:52;;;;;;;;;;;;;;;10.50;83.23;98756.41;5052785;28;19925;-72
2021/10/31 02:25:17;;;;;;;;;;;;;;;10.49;83.67;98754.75;5034994;28;20054;-73
2021/10/31 02:27:45;;;;;;;;;;;;;;;10.52;83.59;98752.72;5044290;28;19956;-73
2021/10/31 02:30:10;;;;;;;;;;;;;;;10.56;82.82;98756.03;5033655;28;20389;-72
2021/10/31 02:32:36;;;;;;;;;;;;;;;10.54;83.06;98763.19;5031390;28;19955;-72
2021/10/31 02:35:01;;;;;;;;;;;;;;;10.53;83.01;98756.22;5031554;28;19924;-73
2021/10/31 02:37:27;;;;;;;;;;;;;;;10.53;82.31;98759.72;5032824;28;19921;-72
2021/10/31 02:39:53;;;;;;;;;;;;;;;10.53;82.24;98758.84;4999119;28;19921;-72
2021/10/31 02:42:18;;;;;;;;;;;;;;;10.52;82.29;98765.06;5030064;28;20384;-72
2021/10/31 02:44:44;;;;;;;;;;;;;;;10.56;82.41;98763.06;5029609;28;20378;-73
2021/10/31 02:47:12;;;;;;;;;;;;;;;10.59;82.47;98760.25;5031185;28;19921;-72
2021/10/31 02:49:37;;;;;;;;;;;;;;;10.56;82.41;98757.78;5013356;28;19924;-72
2021/10/31 02:52:23;;;;;;;;;;;;;;;10.51;82.63;98766.88;5013970;28;19921;-73
2021/10/31 02:54:59;;;;;;;;;;;;;;;10.51;82.29;98766.88;5008099;28;19918;-74
2021/10/31 02:57:34;;;;;;;;;;;;;;;10.52;82.23;98760.63;5029079;28;19917;-72
2021/10/31 03:00:04;;;;;;;;;;;;;;;10.53;82.58;98759.72;5029913;28;19956;-74
2021/10/31 03:02:30;;;;;;;;;;;;;;;10.53;81.36;98749.16;5031081;28;20369;-72
2021/10/31 03:04:55;;;;;;;;;;;;;;;10.46;81.45;98749.66;5020058;28;19921;-73
2021/10/31 03:07:21;;;;;;;;;;;;;;;10.48;82.19;98745.13;5033250;28;19932;-73
2021/10/31 03:09:49;;;;;;;;;;;;;;;10.44;82.18;98748.94;5051066;28;19991;-72
2021/10/31 03:12:15;;;;;;;;;;;;;;;10.48;81.94;98738.09;5050285;28;20329;-72
2021/10/31 03:14:40;;;;;;;;;;;;;;;10.47;82.19;98739.00;5050413;28;20004;-72
2021/10/31 03:17:06;;;;;;;;;;;;;;;10.47;81.60;98741.66;5051824;28;20024;-73
2021/10/31 03:19:36;;;;;;;;;;;;;;;10.46;81.70;98739.97;5032374;28;19940;-72
2021/10/31 03:22:02;;;;;;;;;;;;;;;10.47;81.74;98736.38;5049777;28;19920;-73
2021/10/31 03:24:27;;;;;;;;;;;;;;;10.46;81.57;98739.97;5050914;28;20246;-73
2021/10/31 03:26:52;;;;;;;;;;;;;;;10.44;81.56;98733.97;5049903;28;19921;-72
2021/10/31 03:29:20;;;;;;;;;;;;;;;10.46;81.21;98741.75;5050241;28;19917;-73
2021/10/31 03:31:46;;;;;;;;;;;;;;;10.48;81.40;98739.84;5031422;28;19917;-71
2021/10/31 03:34:11;;;;;;;;;;;;;;;10.51;81.62;98731.78;5050228;28;19924;-72
2021/10/31 03:36:36;;;;;;;;;;;;;;;10.52;81.12;98738.72;5021904;28;19924;-72
2021/10/31 03:39:02;;;;;;;;;;;;;;;10.52;81.22;98734.28;5049856;28;19920;-72
2021/10/31 03:41:27;;;;;;;;;;;;;;;10.54;81.11;98736.84;5049867;28;19923;-72
2021/10/31 03:43:53;;;;;;;;;;;;;;;10.57;81.23;98743.69;5049599;28;19924;-72
2021/10/31 03:46:18;;;;;;;;;;;;;;;10.51;81.24;98739.69;5049361;28;19928;-72
2021/10/31 03:48:43;;;;;;;;;;;;;;;10.50;81.20;98738.81;5049360;28;19928;-73
2021/10/31 03:51:08;;;;;;;;;;;;;;;10.50;80.54;98741.44;5048855;28;19924;-73
2021/10/31 03:53:33;;;;;;;;;;;;;;;10.49;80.57;98737.13;5031864;28;19923;-72
2021/10/31 03:55:59;;;;;;;;;;;;;;;10.52;80.53;98736.91;5048736;28;19921;-73
2021/10/31 03:58:24;;;;;;;;;;;;;;;10.54;80.65;98731.56;5048837;28;19917;-73
2021/10/31 04:00:52;;;;;;;;;;;;;;;10.55;79.78;98727.97;5048874;28;19917;-73
2021/10/31 04:03:18;;;;;;;;;;;;;;;10.57;79.89;98727.88;5032445;28;20388;-73
2021/10/31 04:05:43;;;;;;;;;;;;;;;10.57;79.58;98728.72;5049413;28;19971;-73
2021/10/31 04:08:08;;;;;;;;;;;;;;;10.58;80.23;98732.19;5049500;28;19917;-72
2021/10/31 04:10:34;;;;;;;;;;;;;;;10.59;79.50;98731.25;5030973;28;19921;-73
2021/10/31 04:12:59;;;;;;;;;;;;;;;10.62;80.06;98723.97;5048509;28;19917;-73
2021/10/31 04:15:24;;;;;;;;;;;;;;;10.64;79.35;98721.25;5048986;28;19927;-72
2021/10/31 04:17:50;;;;;;;;;;;;;;;10.56;79.75;98721.78;5022693;28;19940;-72
2021/10/31 04:20:16;;;;;;;;;;;;;;;10.55;80.11;98713.94;5029008;28;19925;-73
2021/10/31 04:22:41;;;;;;;;;;;;;;;10.43;80.14;98710.34;5029433;28;20296;-72
2021/10/31 04:25:07;;;;;;;;;;;;;;;10.42;80.37;98709.50;5029547;28;20400;-73
2021/10/31 04:27:32;;;;;;;;;;;;;;;10.44;80.16;98701.50;5044722;28;19956;-71
2021/10/31 04:29:58;;;;;;;;;;;;;;;10.43;80.24;98699.78;5049305;28;20018;-72
2021/10/31 04:32:23;;;;;;;;;;;;;;;10.45;80.29;98705.81;5047216;28;20612;-72
2021/10/31 04:34:49;;;;;;;;;;;;;;;10.45;79.97;98705.81;5048319;28;19916;-72
2021/10/31 04:37:14;;;;;;;;;;;;;;;10.35;80.39;98700.31;5030904;28;20007;-72
2021/10/31 04:39:41;;;;;;;;;;;;;;;10.37;80.39;98700.22;5029870;28;19917;-71
2021/10/31 04:42:07;;;;;;;;;;;;;;;10.36;80.40;98696.75;5048192;28;19951;-72
2021/10/31 04:44:33;;;;;;;;;;;;;;;10.35;80.92;98694.19;5049077;28;20337;-72
2021/10/31 04:46:58;;;;;;;;;;;;;;;10.36;80.84;98691.47;5048835;28;19992;-71
2021/10/31 04:49:24;;;;;;;;;;;;;;;10.39;80.43;98695.69;5030328;28;19917;-71
2021/10/31 04:51:49;;;;;;;;;;;;;;;10.42;80.54;98695.47;5048151;28;19963;-71
2021/10/31 04:54:14;;;;;;;;;;;;;;;10.43;80.86;98691.88;5049108;28;20303;-72
2021/10/31 04:56:40;;;;;;;;;;;;;;;10.45;80.97;98685.56;5049313;28;20369;-71
2021/10/31 04:59:05;;;;;;;;;;;;;;;10.49;80.24;98676.53;5049655;28;19943;-72
2021/10/31 05:01:30;;;;;;;;;;;;;;;10.51;80.31;98682.53;5049283;28;19928;-73
2021/10/31 05:03:58;;;;;;;;;;;;;;;10.55;80.07;98682.31;5049120;28;20368;-71
2021/10/31 05:06:23;;;;;;;;;;;;;;;10.57;79.80;98678.66;5049238;28;19932;-71
2021/10/31 05:08:48;;;;;;;;;;;;;;;10.56;79.89;98674.34;5058825;28;19920;-72
2021/10/31 05:11:14;;;;;;;;;;;;;;;10.49;79.87;98663.34;5057236;28;19939;-72
2021/10/31 05:13:41;;;;;;;;;;;;;;;10.53;80.44;98670.13;5053556;28;19974;-72
2021/10/31 05:16:06;;;;;;;;;;;;;;;10.57;79.60;98664.63;5052042;28;20376;-72
2021/10/31 05:18:31;;;;;;;;;;;;;;;10.57;79.97;98665.47;5053415;28;19925;-72
2021/10/31 05:20:57;;;;;;;;;;;;;;;10.57;79.89;98652.28;5052367;28;19927;-71
2021/10/31 05:23:22;;;;;;;;;;;;;;;10.60;80.25;98653.88;5052453;28;19964;-70
2021/10/31 05:25:47;;;;;;;;;;;;;;;10.63;79.55;98651.88;5050954;28;19927;-71
2021/10/31 05:28:12;;;;;;;;;;;;;;;10.66;79.82;98648.19;5052470;28;19971;-73
2021/10/31 05:30:38;;;;;;;;;;;;;;;10.69;79.71;98637.44;5051715;28;20012;-71
2021/10/31 05:33:04;;;;;;;;;;;;;;;10.70;79.12;98642.59;5053151;28;19979;-71
2021/10/31 05:35:30;;;;;;;;;;;;;;;10.71;78.95;98628.47;5050805;28;20391;-71
2021/10/31 05:37:58;;;;;;;;;;;;;;;10.74;78.98;98619.50;5050835;28;19928;-71
2021/10/31 05:40:25;;;;;;;;;;;;;;;10.73;78.71;98612.53;5051119;28;19923;-71
2021/10/31 05:42:50;;;;;;;;;;;;;;;10.68;79.02;98606.75;5052571;28;19917;-72
2021/10/31 05:45:15;;;;;;;;;;;;;;;10.68;79.39;98614.66;5052308;28;20016;-72
2021/10/31 05:47:42;;;;;;;;;;;;;;;10.66;79.17;98608.66;5052363;28;19927;-73
2021/10/31 05:50:08;;;;;;;;;;;;;;;10.63;79.16;98600.94;5034300;28;20008;-72
2021/10/31 05:52:34;;;;;;;;;;;;;;;10.58;78.99;98608.31;5054578;28;19925;-72
2021/10/31 05:54:59;;;;;;;;;;;;;;;10.55;79.34;98598.84;5054110;28;19969;-73
2021/10/31 05:57:26;;;;;;;;;;;;;;;10.56;79.57;98605.81;5055087;28;20014;-73
2021/10/31 05:59:51;;;;;;;;;;;;;;;10.54;78.79;98594.53;5054015;28;19917;-73
2021/10/31 06:02:16;;;;;;;;;;;;;;;10.49;78.37;98584.28;5051071;28;19927;-73
2021/10/31 06:04:44;;;;;;;;;;;;;;;10.49;78.44;98592.19;5034052;28;20369;-73
2021/10/31 06:07:10;;;;;;;;;;;;;;;10.51;78.54;98598.22;5051936;28;19927;-73
2021/10/31 06:09:35;;;;;;;;;;;;;;;10.49;77.99;98601.91;5052288;28;19917;-72
2021/10/31 06:12:00;;;;;;;;;;;;;;;10.47;77.87;98591.47;5040251;28;20384;-72
2021/10/31 06:14:26;;;;;;;;;;;;;;;10.48;77.50;98593.16;5034142;28;19974;-72
2021/10/31 06:16:51;;;;;;;;;;;;;;;10.43;77.91;98594.41;5051929;28;19927;-72
2021/10/31 06:19:17;;;;;;;;;;;;;;;10.38;78.38;98593.88;5034892;28;19916;-72
2021/10/31 06:21:42;;;;;;;;;;;;;;;10.32;78.71;98590.72;5052173;28;19929;-73
2021/10/31 06:24:07;;;;;;;;;;;;;;;10.35;78.26;98592.28;5053555;28;19916;-72
2021/10/31 06:26:32;;;;;;;;;;;;;;;10.36;78.12;98594.00;5049991;28;19928;-73
2021/10/31 06:28:57;;;;;;;;;;;;;;;10.36;78.04;98595.75;5052262;28;19940;-73
2021/10/31 06:31:23;;;;;;;;;;;;;;;10.29;77.90;98596.19;5050948;28;20365;-73
2021/10/31 06:33:48;;;;;;;;;;;;;;;10.30;77.75;98578.59;5023812;28;20245;-71
2021/10/31 06:36:13;;;;;;;;;;;;;;;10.22;77.86;98580.88;5033153;28;20365;-71
2021/10/31 06:38:38;;;;;;;;;;;;;;;10.28;77.51;98581.31;5051085;28;20396;-72
2021/10/31 06:41:07;;;;;;;;;;;;;;;10.34;77.94;98579.22;5050541;28;20357;-72
2021/10/31 06:43:33;;;;;;;;;;;;;;;10.37;77.53;98573.75;5051087;28;19924;-72
2021/10/31 06:45:58;;;;;;;;;;;;;;;10.38;76.47;98578.06;5051002;28;19921;-72
2021/10/31 06:48:23;;;;;;;;;;;;;;;10.30;77.06;98578.59;5051154;28;19917;-72
2021/10/31 06:50:50;;;;;;;;;;;;;;;10.31;77.40;98577.63;5050365;28;19917;-72
2021/10/31 06:53:16;;;;;;;;;;;;;;;10.33;77.17;98567.84;5050965;28;19921;-73
2021/10/31 06:55:41;;;;;;;;;;;;;;;10.36;76.75;98572.06;5032620;28;19975;-72
2021/10/31 06:58:07;;;;;;;;;;;;;;;10.42;76.75;98567.22;5032186;28;20031;-73
2021/10/31 07:00:32;;;;;;;;;;;;;;;10.47;76.95;98565.09;5049100;28;20346;-71
2021/10/31 07:02:57;;;;;;;;;;;;;;;10.46;76.87;98552.91;5005763;28;19921;-73
2021/10/31 07:05:22;;;;;;;;;;;;;;;10.51;76.75;98555.22;5030695;28;19931;-70
2021/10/31 07:07:48;;;;;;;;;;;;;;;10.52;76.47;98563.00;5030389;28;19939;-71
2021/10/31 07:10:14;;;;;;;;;;;;;;;10.59;76.92;98554.69;5029859;28;19944;-71
2021/10/31 07:12:40;;;;;;;;;;;;;;;10.64;76.67;98555.22;5030246;28;20276;-71
2021/10/31 07:15:06;;;;;;;;;;;;;;;10.66;76.34;98559.44;5031163;28;20024;-71
2021/10/31 07:17:31;;;;;;;;;;;;;;;10.72;76.33;98547.59;5030006;28;20007;-72
2021/10/31 07:19:56;;;;;;;;;;;;;;;10.74;75.97;98548.34;5029982;28;19929;-72
2021/10/31 07:22:21;;;;;;;;;;;;;;;10.74;75.95;98548.34;5029384;28;19949;-72
2021/10/31 07:24:47;;;;;;;;;;;;;;;10.78;75.88;98541.03;5030069;28;19956;-72
2021/10/31 07:27:12;;;;;;;;;;;;;;;10.82;75.77;98543.38;5029319;28;20366;-72
2021/10/31 07:29:38;;;;;;;;;;;;;;;10.84;75.58;98538.00;5029117;28;19940;-72
2021/10/31 07:32:03;;;;;;;;;;;;;;;10.85;75.63;98539.66;5030043;28;20016;-72
2021/10/31 07:34:29;;;;;;;;;;;;;;;10.86;75.81;98542.22;5031380;28;19917;-72
2021/10/31 07:36:54;;;;;;;;;;;;;;;10.92;75.27;98533.84;5034725;28;19998;-72
2021/10/31 07:39:19;;;;;;;;;;;;;;;11.00;75.24;98533.34;5044610;28;19921;-72
2021/10/31 07:41:44;;;;;;;;;;;;;;;11.09;75.51;98534.47;5048761;28;19917;-73
2021/10/31 07:44:10;;;;;;;;;;;;;;;11.16;75.35;98530.44;5049264;28;19917;-72
2021/10/31 07:46:35;;;;;;;;;;;;;;;11.21;75.12;98536.22;5052415;28;19921;-72
2021/10/31 07:49:01;;;;;;;;;;;;;;;11.25;74.26;98529.78;5050920;28;19978;-73
2021/10/31 07:51:27;;;;;;;;;;;;;;;11.32;74.62;98532.78;5032889;28;20285;-73
2021/10/31 07:53:52;;;;;;;;;;;;;;;11.36;74.95;98529.81;5049789;28;19971;-73
2021/10/31 07:56:20;;;;;;;;;;;;;;;11.43;74.97;98532.03;5049331;28;19924;-72
2021/10/31 07:58:47;;;;;;;;;;;;;;;11.48;74.71;98533.38;5049693;28;20004;-73
2021/10/31 08:01:12;;;;;;;;;;;;;;;11.52;74.70;98529.56;5048862;28;20012;-73
2021/10/31 08:03:40;;;;;;;;;;;;;;;11.56;74.93;98514.34;5049315;28;20571;-72
2021/10/31 08:06:06;;;;;;;;;;;;;;;11.59;74.66;98522.03;5049468;28;19927;-73
2021/10/31 08:08:31;;;;;;;;;;;;;;;11.63;73.45;98510.28;5031434;28;20346;-73
2021/10/31 08:10:56;;;;;;;;;;;;;;;11.68;74.67;98512.59;5048571;28;19943;-72
2021/10/31 08:13:25;;;;;;;;;;;;;;;11.74;74.80;98512.13;5049588;28;19917;-72
2021/10/31 08:15:51;;;;;;;;;;;;;;;11.91;74.17;98513.53;5049509;28;19921;-73
2021/10/31 08:18:17;;;;;;;;;;;;;;;12.03;72.41;98509.97;5047748;28;20000;-72
2021/10/31 08:20:42;;;;;;;;;;;;;;;12.12;71.12;98506.63;5048728;28;20043;-72
2021/10/31 08:23:08;;;;;;;;;;;;;;;12.21;71.67;98508.59;5045986;28;20384;-72
2021/10/31 08:25:34;;;;;;;;;;;;;;;12.30;70.90;98509.66;5048162;28;20023;-72
2021/10/31 08:28:00;;;;;;;;;;;;;;;12.41;71.00;98503.56;5031755;28;20019;-72
2021/10/31 08:30:30;;;;;;;;;;;;;;;12.48;70.89;98496.84;5048833;28;20312;-71
2021/10/31 08:32:56;;;;;;;;;;;;;;;12.59;71.45;98496.84;5028327;28;19916;-71
2021/10/31 08:35:22;;;;;;;;;;;;;;;12.67;71.01;98493.59;5048468;28;20383;-73
2021/10/31 08:37:47;;;;;;;;;;;;;;;12.76;71.57;98490.22;5048893;28;19916;-72
2021/10/31 08:40:13;;;;;;;;;;;;;;;12.91;70.85;98489.97;5048788;28;19932;-72
2021/10/31 08:42:39;;;;;;;;;;;;;;;13.12;70.63;98488.28;5031123;28;19924;-72
2021/10/31 08:45:05;;;;;;;;;;;;;;;13.27;70.52;98489.69;5049112;28;19917;-72
2021/10/31 08:47:31;;;;;;;;;;;;;;;13.48;69.91;98484.44;5049123;28;19939;-72
2021/10/31 08:49:56;;;;;;;;;;;;;;;13.76;69.45;98484.84;5030778;28;19917;-71
2021/10/31 08:52:21;;;;;;;;;;;;;;;14.10;68.73;98471.38;5046889;28;19913;-73
2021/10/31 08:54:47;;;;;;;;;;;;;;;14.32;67.66;98467.75;5047420;28;20419;-72
2021/10/31 08:57:12;;;;;;;;;;;;;;;14.79;65.87;98455.72;5047566;28;19924;-73
2021/10/31 08:59:37;;;;;;;;;;;;;;;15.40;64.74;98448.53;5048827;28;19986;-71
2021/10/31 09:02:03;;;;;;;;;;;;;;;15.89;63.38;98438.75;5049158;28;19921;-73
2021/10/31 09:04:29;;;;;;;;;;;;;;;16.28;61.98;98425.38;5048836;28;23695;-73
2021/10/31 09:06:54;;;;;;;;;;;;;;;16.61;60.68;98429.28;5048935;28;19964;-72
2021/10/31 09:09:19;;;;;;;;;;;;;;;16.79;60.63;98410.75;5044991;28;19916;-74
2021/10/31 09:11:46;;;;;;;;;;;;;;;16.75;60.60;98414.66;5048592;28;19917;-72
2021/10/31 09:14:11;;;;;;;;;;;;;;;16.67;59.92;98404.75;5021797;28;20288;-72
2021/10/31 09:16:36;;;;;;;;;;;;;;;17.16;59.55;98397.34;5048148;28;19921;-73
2021/10/31 09:19:02;;;;;;;;;;;;;;;17.78;57.80;98399.19;5048559;28;19924;-73
2021/10/31 09:21:28;;;;;;;;;;;;;;;18.40;55.96;98399.09;5046973;28;19916;-73
2021/10/31 09:23:54;;;;;;;;;;;;;;;18.80;54.38;98393.13;5030295;28;19921;-73
2021/10/31 09:26:19;;;;;;;;;;;;;;;19.36;53.38;98398.75;5046081;28;19924;-73
2021/10/31 09:28:46;;;;;;;;;;;;;;;19.71;52.53;98392.28;5047217;28;20351;-72
2021/10/31 09:31:12;;;;;;;;;;;;;;;19.41;53.28;98396.41;5046030;28;19924;-73
2021/10/31 09:33:39;;;;;;;;;;;;;;;19.25;53.43;98394.56;5048707;28;19917;-73
2021/10/31 09:36:04;;;;;;;;;;;;;;;18.96;54.51;98392.34;5048007;28;19931;-72
2021/10/31 09:38:31;;;;;;;;;;;;;;;18.55;55.31;98388.66;5048447;28;19928;-73
2021/10/31 09:40:57;;;;;;;;;;;;;;;17.91;56.88;98372.97;5047695;28;19917;-71
2021/10/31 09:43:24;;;;;;;;;;;;;;;18.15;56.33;98366.97;5048099;28;20236;-71
2021/10/31 09:45:50;;;;;;;;;;;;;;;18.57;55.56;98363.47;5048738;28;19921;-73
2021/10/31 09:48:16;;;;;;;;;;;;;;;18.58;55.30;98346.47;5049398;28;19931;-72
2021/10/31 09:50:46;;;;;;;;;;;;;;;19.02;54.43;98338.25;5048946;28;20028;-72
2021/10/31 09:53:16;;;;;;;;;;;;;;;19.08;54.03;98328.75;5050007;28;19916;-72
2021/10/31 09:55:41;;;;;;;;;;;;;;;19.28;53.95;98329.25;5053815;28;19917;-73
2021/10/31 09:58:13;;;;;;;;;;;;;;;19.24;53.53;98328.75;5051371;28;20028;-73
2021/10/31 10:00:43;;;;;;;;;;;;;;;19.25;53.64;98334.94;5052333;28;19917;-72
2021/10/31 10:03:23;;;;;;;;;;;;;;;19.19;54.27;98327.59;5056741;28;19917;-72
2021/10/31 10:05:50;;;;;;;;;;;;;;;19.48;53.59;98321.75;5054375;28;20009;-72
2021/10/31 10:08:16;;;;;;;;;;;;;;;19.48;53.49;98311.03;5055704;28;19917;-73
2021/10/31 10:10:43;;;;;;;;;;;;;;;19.53;53.44;98306.03;5051783;28;19940;-73
2021/10/31 10:13:15;;;;;;;;;;;;;;;18.77;55.06;98315.19;5054140;28;19986;-73
2021/10/31 10:15:41;;;;;;;;;;;;;;;18.34;56.18;98317.03;5053101;28;19999;-73
2021/10/31 10:18:06;;;;;;;;;;;;;;;17.92;57.31;98315.19;5051608;28;19920;-73
2021/10/31 10:20:35;;;;;;;;;;;;;;;18.05;57.73;98307.56;5052344;28;19932;-71
2021/10/31 10:23:08;;;;;;;;;;;;;;;18.00;58.38;98294.72;5053345;28;19924;-71
2021/10/31 10:25:40;;;;;;;;;;;;;;;18.30;57.33;98307.69;5045479;28;19922;-71
2021/10/31 10:28:21;;;;;;;;;;;;;;;18.31;57.32;98307.53;5052441;28;19964;-73
2021/10/31 10:30:46;;;;;;;;;;;;;;;18.07;57.09;98310.91;5025761;28;19935;-72
2021/10/31 10:33:18;;;;;;;;;;;;;;;17.94;57.42;98302.50;5052276;28;19916;-73
2021/10/31 10:35:44;;;;;;;;;;;;;;;17.77;58.48;98307.72;5050824;28;19927;-72
2021/10/31 10:38:19;;;;;;;;;;;;;;;17.70;58.70;98295.19;5050271;28;20498;-72
2021/10/31 10:40:44;;;;;;;;;;;;;;;17.60;58.71;98282.81;5029404;28;19917;-72
2021/10/31 10:43:09;;;;;;;;;;;;;;;17.48;59.78;98283.22;5051513;28;19974;-74
2021/10/31 10:45:38;;;;;;;;;;;;;;;17.51;59.90;98272.25;5050347;28;19975;-72
2021/10/31 10:48:04;;;;;;;;;;;;;;;17.38;59.74;98267.34;5050391;28;20307;-73
2021/10/31 10:50:34;;;;;;;;;;;;;;;17.17;60.60;98265.84;5047381;28;19916;-72
2021/10/31 10:53:00;;;;;;;;;;;;;;;17.10;61.14;98261.28;5050936;28;19917;-72
2021/10/31 10:55:29;;;;;;;;;;;;;;;17.10;60.96;98266.63;5050173;28;19995;-73
2021/10/31 10:57:56;;;;;;;;;;;;;;;17.09;61.12;98260.47;5050999;28;19917;-73
2021/10/31 11:00:23;;;;;;;;;;;;;;;17.12;61.17;98259.31;5050178;28;19921;-73
2021/10/31 11:02:49;;;;;;;;;;;;;;;17.05;60.79;98250.28;5041233;28;20399;-71
2021/10/31 11:05:15;;;;;;;;;;;;;;;17.05;60.95;98247.59;5035042;28;19925;-71
2021/10/31 11:07:42;;;;;;;;;;;;;;;17.23;61.39;98243.09;5040250;28;20306;-73
2021/10/31 11:10:12;;;;;;;;;;;;;;;17.21;59.90;98231.75;5047254;28;19962;-71
2021/10/31 11:12:38;;;;;;;;;;;;;;;17.27;59.86;98224.97;5030463;28;19964;-73
2021/10/31 11:15:05;;;;;;;;;;;;;;;17.21;60.23;98218.44;5046842;28;20603;-73
2021/10/31 11:17:31;;;;;;;;;;;;;;;17.22;59.90;98219.28;5047240;28;19928;-73
2021/10/31 11:19:56;;;;;;;;;;;;;;;17.24;60.02;98202.16;5046586;28;19917;-73
2021/10/31 11:22:23;;;;;;;;;;;;;;;17.21;60.60;98212.28;5047598;28;19921;-73
2021/10/31 11:24:49;;;;;;;;;;;;;;;17.10;60.34;98181.41;5027895;28;19920;-72
2021/10/31 11:27:16;;;;;;;;;;;;;;;17.03;60.49;98183.03;5016850;28;19947;-72
2021/10/31 11:29:46;;;;;;;;;;;;;;;16.95;61.27;98187.28;5027597;28;20013;-72
2021/10/31 11:32:12;;;;;;;;;;;;;;;16.75;61.77;98183.94;5028253;28;19924;-73
2021/10/31 11:34:39;;;;;;;;;;;;;;;16.80;61.80;98172.88;5015132;28;19924;-72
2021/10/31 11:37:06;;;;;;;;;;;;;;;16.81;61.59;98166.59;5028633;28;19920;-72
2021/10/31 11:39:33;;;;;;;;;;;;;;;16.83;61.78;98153.09;5046350;28;20350;-73
2021/10/31 11:42:00;;;;;;;;;;;;;;;16.81;62.25;98149.75;5047791;28;19971;-72
2021/10/31 11:44:31;;;;;;;;;;;;;;;16.82;61.68;98146.13;5028855;28;19920;-71
2021/10/31 11:46:57;;;;;;;;;;;;;;;16.81;61.80;98131.13;5047131;28;19987;-72
2021/10/31 11:49:22;;;;;;;;;;;;;;;16.79;61.75;98131.31;5047398;28;20166;-73
2021/10/31 11:51:49;;;;;;;;;;;;;;;16.81;61.86;98126.66;5029940;28;20349;-70
2021/10/31 11:54:16;;;;;;;;;;;;;;;16.89;61.32;98121.38;5049613;28;20326;-72
2021/10/31 11:56:51;;;;;;;;;;;;;;;16.91;61.25;98116.75;5048095;28;19925;-71
2021/10/31 11:59:17;;;;;;;;;;;;;;;16.95;60.94;98106.59;5027597;28;20387;-73
2021/10/31 12:01:47;;;;;;;;;;;;;;;17.01;61.23;98113.16;5009517;28;20057;-72
2021/10/31 12:04:12;;;;;;;;;;;;;;;17.02;61.28;98088.19;5027308;28;19918;-72
2021/10/31 12:06:38;;;;;;;;;;;;;;;17.04;61.43;98083.53;5033776;28;19921;-72
2021/10/31 12:09:05;;;;;;;;;;;;;;;17.06;61.38;98087.72;5045877;28;20307;-71
2021/10/31 12:11:33;;;;;;;;;;;;;;;17.05;61.39;98074.53;5045290;28;19916;-71
2021/10/31 12:14:01;;;;;;;;;;;;;;;17.06;61.62;98081.56;5046622;28;19916;-71
2021/10/31 12:16:27;;;;;;;;;;;;;;;17.01;61.91;98076.69;5045716;28;19921;-72
2021/10/31 12:18:54;;;;;;;;;;;;;;;17.06;61.40;98077.06;5043964;28;20015;-72
2021/10/31 12:21:25;;;;;;;;;;;;;;;17.09;61.36;98078.56;5045862;28;20369;-72
2021/10/31 12:23:52;;;;;;;;;;;;;;;17.09;61.33;98066.09;5010910;28;20393;-73
2021/10/31 12:26:18;;;;;;;;;;;;;;;17.09;61.59;98066.09;5008893;28;19925;-73
2021/10/31 12:28:44;;;;;;;;;;;;;;;17.16;61.19;98069.78;5009217;28;19917;-72
2021/10/31 12:31:19;;;;;;;;;;;;;;;17.13;61.88;98061.25;5025474;28;20293;-71
2021/10/31 12:34:03;;;;;;;;;;;;;;;17.25;61.16;98057.31;5047578;28;19938;-71
2021/10/31 12:36:29;;;;;;;;;;;;;;;17.37;60.60;98057.88;5047468;28;19923;-72
2021/10/31 12:38:54;;;;;;;;;;;;;;;17.39;60.36;98059.38;5051867;28;19917;-71
2021/10/31 12:41:21;;;;;;;;;;;;;;;17.47;59.87;98053.22;5038864;28;20376;-72
2021/10/31 12:43:49;;;;;;;;;;;;;;;17.46;59.99;98058.75;5045391;28;20054;-71
2021/10/31 12:46:30;;;;;;;;;;;;;;;17.35;60.26;98059.84;5046819;28;19943;-71